TimeEDT,TemperatureF,Dew PointF,Humidity,Sea Level PressureIn,VisibilityMPH,Wind Direction,Wind SpeedMPH,Gust SpeedMPH,PrecipitationIn,Events,Conditions,WindDirDegrees,DateUTC
12:00 AM,48.2,41.0,76,30.06,9.0,West,10.4,-,N/A,Rain,Light Rain,270,2012-10-12 04:00:00
12:36 AM,46.4,42.8,87,30.06,9.0,West,10.4,21.9,N/A,,Overcast,260,2012-10-12 04:36:00
2:00 AM,46,37,62,30.09,10,WNW,13.8,,,,Overcast,290,2012-10-12 06:00:00
3:00 AM,44.6,37.4,76,30.10,9.0,West,11.5,-,N/A,,Overcast,270,2012-10-12 07:00:00
4:00 AM,44.6,35.6,71,30.11,9.0,West,13.8,-,N/A,,Overcast,280,2012-10-12 08:00:00
5:00 AM,44.6,35.6,71,30.14,9.0,WNW,11.5,18.4,N/A,,Scattered Clouds,290,2012-10-12 09:00:00
6:00 AM,42.8,33.8,70,30.17,9.0,NW,18.4,-,N/A,,Clear,310,2012-10-12 10:00:00
7:00 AM,41.0,32.0,70,30.21,9.0,NNW,15.0,20.7,N/A,,Clear,340,2012-10-12 11:00:00
8:00 AM,40,31,59,30.27,10,North,11.5,,,,,350,2012-10-12 12:00:00
8:00 AM,39.2,30.2,70,30.27,9.0,North,11.5,18.4,N/A,,Clear,350,2012-10-12 12:00:00
9:00 AM,42.8,30.2,61,30.30,9.0,North,10.4,-,N/A,,Clear,360,2012-10-12 13:00:00
10:00 AM,44.6,24.8,46,30.34,9.0,NNW,12.7,21.9,N/A,,Clear,340,2012-10-12 14:00:00
11:00 AM,44.6,23.0,43,30.37,9.0,North,12.7,23.0,N/A,,Clear,350,2012-10-12 15:00:00
12:00 PM,46.4,21.2,37,30.39,9.0,NNW,13.8,25.3,N/A,,Clear,330,2012-10-12 16:00:00
1:00 PM,48.2,23.0,37,30.40,9.0,NW,13.8,25.3,N/A,,Partly Cloudy,310,2012-10-12 17:00:00
2:00 PM,48,19,19,30.40,10,NNW,11.5,,,,,340,2012-10-12 18:00:00
2:00 PM,48.2,19.4,32,30.40,9.0,NNW,6.9,21.9,N/A,,Clear,340,2012-10-12 18:00:00
3:00 PM,48.2,19.4,32,30.40,9.0,NNW,8.1,19.6,N/A,,Clear,340,2012-10-12 19:00:00
4:00 PM,48.2,17.6,30,30.40,9.0,WNW,9.2,-,N/A,,Clear,300,2012-10-12 20:00:00
5:00 PM,48.2,17.6,30,30.40,9.0,West,4.6,19.6,N/A,,Clear,270,2012-10-12 21:00:00
6:00 PM,46.4,17.6,32,30.42,9.0,WNW,9.2,-,N/A,,Clear,300,2012-10-12 22:00:00
7:00 PM,46.4,17.6,32,30.42,9.0,NNW,6.9,-,N/A,,Clear,340,2012-10-12 23:00:00
8:00 PM,45,20,24,30.43,10,North,6.9,,,,,350,2012-10-13 00:00:00
8:00 PM,44.6,19.4,37,30.43,9.0,North,8.1,-,N/A,,Clear,350,2012-10-13 00:00:00
9:00 PM,44.6,21.2,39,30.44,9.0,North,5.8,-,N/A,,Clear,350,2012-10-13 01:00:00
10:00 PM,39.2,28.4,65,30.45,9.0,South,2.3,-,N/A,,Clear,190,2012-10-13 02:00:00
11:00 PM,37.4,32.0,81,30.45,9.0,SSE,2.3,-,N/A,,Clear,150,2012-10-13 03:00:00